Terminal Aerodrome Forecast
Issued by NWS Mt. Holly, NJ

Home | Current Version | Previous Version | Text Only | Print | Product List | Glossary On
Versions: 1 2 3 4 5 6 7 8 9 10 11 12 13 14 15 16 17 18 19 20 21
000
FTUS41 KPHI 280524
TAFTTN
TAF
KTTN 280524Z 2806/2906 VRB03KT P6SM SCT050
      TEMPO 2808/2812 3SM BR SCT010
     FM281300 14006KT P6SM SCT050
     FM281700 16008KT P6SM BKN050
     FM282300 13008KT P6SM SCT010 BKN050
      TEMPO 2901/2903 BKN010 OVC050
     FM290300 11008KT 4SM -SHRA BR OVC005=

USA.gov is the U.S. government's official web portal to all federal, state and local government web resources and services.